sensor_id;sensor_type;location;lat;lon;timestamp;pressure;altitude;pressure_sealevel;temperature;humidity
71956;BME280;59829;50.562;6.258;2023-04-23T00:23:15;95009.72;;;10.34;100.00
71956;BME280;59829;50.562;6.258;2023-04-23T00:53:15;95000.63;;;10.02;100.00
71956;BME280;59829;50.562;6.258;2023-04-23T01:23:16;94996.63;;;9.80;100.00
71956;BME280;59829;50.562;6.258;2023-04-23T01:53:17;94997.75;;;9.49;100.00
71956;BME280;59829;50.562;6.258;2023-04-23T02:23:17;94976.50;;;9.58;100.00
71956;BME280;59829;50.562;6.258;2023-04-23T02:53:18;94982.63;;;9.84;100.00
71956;BME280;59829;50.562;6.258;2023-04-23T03:23:18;94965.09;;;9.99;100.00
71956;BME280;59829;50.562;6.258;2023-04-23T03:53:18;94961.16;;;10.05;100.00
71956;BME280;59829;50.562;6.258;2023-04-23T04:23:19;94955.66;;;10.09;100.00
71956;BME280;59829;50.562;6.258;2023-04-23T04:53:19;94951.81;;;10.23;100.00
71956;BME280;59829;50.562;6.258;2023-04-23T05:23:20;94942.03;;;10.46;100.00
71956;BME280;59829;50.562;6.258;2023-04-23T05:53:20;94948.69;;;10.84;100.00
71956;BME280;59829;50.562;6.258;2023-04-23T06:23:20;94940.88;;;11.03;100.00
71956;BME280;59829;50.562;6.258;2023-04-23T06:53:21;94910.59;;;11.42;100.00
71956;BME280;59829;50.562;6.258;2023-04-23T07:23:21;94909.22;;;11.74;100.00
71956;BME280;59829;50.562;6.258;2023-04-23T07:53:21;94895.16;;;12.12;100.00
71956;BME280;59829;50.562;6.258;2023-04-23T08:23:22;94874.16;;;12.59;100.00
71956;BME280;59829;50.562;6.258;2023-04-23T08:53:25;94867.34;;;13.24;100.00
71956;BME280;59829;50.562;6.258;2023-04-23T09:23:27;94846.53;;;13.75;100.00
71956;BME280;59829;50.562;6.258;2023-04-23T09:53:27;94836.16;;;14.07;100.00
71956;BME280;59829;50.562;6.258;2023-04-23T10:23:28;94817.66;;;14.35;94.30
71956;BME280;59829;50.562;6.258;2023-04-23T10:53:30;94797.19;;;14.41;88.88
71956;BME280;59829;50.562;6.258;2023-04-23T11:23:31;94754.25;;;15.17;84.79
71956;BME280;59829;50.562;6.258;2023-04-23T11:53:32;94700.94;;;15.54;79.80
71956;BME280;59829;50.562;6.258;2023-04-23T12:23:32;94652.97;;;15.74;76.08
71956;BME280;59829;50.562;6.258;2023-04-23T12:53:35;94622.75;;;15.89;73.77
71956;BME280;59829;50.562;6.258;2023-04-23T13:23:35;94578.84;;;15.68;71.63
71956;BME280;59829;50.562;6.258;2023-04-23T13:53:35;94519.66;;;15.30;70.83
71956;BME280;59829;50.562;6.258;2023-04-23T14:53:46;94472.25;;;13.92;73.28
71956;BME280;59829;50.562;6.258;2023-04-23T15:23:47;94488.84;;;13.67;75.97
71956;BME280;59829;50.562;6.258;2023-04-23T15:53:47;94424.34;;;12.99;79.72
71956;BME280;59829;50.562;6.258;2023-04-23T16:23:48;94355.13;;;12.75;83.28
71956;BME280;59829;50.562;6.258;2023-04-23T16:53:48;94306.19;;;12.46;85.66
71956;BME280;59829;50.562;6.258;2023-04-23T17:23:49;94251.38;;;12.30;88.94
71956;BME280;59829;50.562;6.258;2023-04-23T17:53:49;94230.91;;;12.22;91.55
71956;BME280;59829;50.562;6.258;2023-04-23T18:23:51;94282.31;;;11.83;94.51
71956;BME280;59829;50.562;6.258;2023-04-23T18:53:51;94313.19;;;11.34;96.63
71956;BME280;59829;50.562;6.258;2023-04-23T19:23:51;94343.81;;;10.95;97.49
71956;BME280;59829;50.562;6.258;2023-04-23T19:53:53;94350.34;;;10.73;97.89
71956;BME280;59829;50.562;6.258;2023-04-23T20:23:54;94367.75;;;10.45;97.75
71956;BME280;59829;50.562;6.258;2023-04-23T20:53:55;94382.75;;;10.32;97.60
71956;BME280;59829;50.562;6.258;2023-04-23T21:23:59;94369.56;;;10.19;97.86
71956;BME280;59829;50.562;6.258;2023-04-23T21:53:59;94372.44;;;10.16;98.14
71956;BME280;59829;50.562;6.258;2023-04-23T22:24:00;94361.72;;;10.12;98.85
71956;BME280;59829;50.562;6.258;2023-04-23T22:54:02;94356.09;;;10.09;100.00
71956;BME280;59829;50.562;6.258;2023-04-23T23:24:03;94366.75;;;9.96;100.00
71956;BME280;59829;50.562;6.258;2023-04-23T23:54:03;94367.16;;;9.75;100.00
